createdAt,value
2019-01-20T00:01:46.307Z,1.00
2019-01-20T00:04:13.768Z,1.00
2019-01-20T00:06:41.031Z,0.90
2019-01-20T00:09:09.747Z,0.90
2019-01-20T00:11:37.867Z,0.90
2019-01-20T00:14:05.737Z,0.80
2019-01-20T00:16:33.187Z,0.70
2019-01-20T00:19:01.132Z,0.60
2019-01-20T00:21:28.493Z,0.60
2019-01-20T00:23:55.778Z,0.70
2019-01-20T00:26:23.387Z,0.70
2019-01-20T00:28:50.667Z,0.70
2019-01-20T00:31:18.208Z,0.60
2019-01-20T00:33:46.338Z,0.60
2019-01-20T00:36:13.711Z,0.50
2019-01-20T00:38:40.928Z,0.30
2019-01-20T00:41:08.355Z,0.30
2019-01-20T00:43:35.767Z,0.30
2019-01-20T00:46:04.188Z,0.30
2019-01-20T00:48:31.413Z,0.30
2019-01-20T00:50:59.020Z,0.40
2019-01-20T00:53:26.387Z,0.40
2019-01-20T00:55:53.820Z,0.30
2019-01-20T00:58:21.107Z,0.40
2019-01-20T01:00:48.487Z,0.40
2019-01-20T01:03:16.569Z,0.40
2019-01-20T01:05:43.898Z,0.30
2019-01-20T01:08:12.370Z,0.30
2019-01-20T01:10:39.757Z,0.30
2019-01-20T01:13:08.940Z,0.30
2019-01-20T01:15:36.099Z,0.20
2019-01-20T01:18:03.847Z,0.10
2019-01-20T01:20:31.560Z,0.10
2019-01-20T01:22:59.061Z,0.10
2019-01-20T01:25:26.477Z,0.20
2019-01-20T01:27:53.888Z,0.20
2019-01-20T01:30:23.581Z,0.10
2019-01-20T01:32:51.722Z,0.00
2019-01-20T01:35:19.127Z,0.10
2019-01-20T01:37:46.557Z,0.00
2019-01-20T01:40:17.011Z,-0.10
2019-01-20T01:42:44.738Z,-0.10
2019-01-20T01:45:17.837Z,-0.10
2019-01-20T01:47:45.277Z,-0.10
2019-01-20T01:50:14.599Z,-0.10
2019-01-20T01:52:42.197Z,0.00
2019-01-20T01:55:10.997Z,0.10
2019-01-20T01:57:38.449Z,0.10
2019-01-20T02:00:16.836Z,0.10
2019-01-20T02:02:44.937Z,0.20
2019-01-20T02:05:12.682Z,0.20
2019-01-20T02:07:40.177Z,0.10
2019-01-20T02:10:18.218Z,0.20
2019-01-20T02:12:45.947Z,0.20
2019-01-20T02:15:16.741Z,0.20
2019-01-20T02:17:44.257Z,0.20
2019-01-20T02:20:18.979Z,0.20
2019-01-20T02:22:46.547Z,0.20
2019-01-20T02:25:14.108Z,0.20
2019-01-20T02:27:41.377Z,0.20
2019-01-20T02:30:22.250Z,0.30
2019-01-20T02:32:50.925Z,0.20
2019-01-20T02:35:18.539Z,0.10
2019-01-20T02:37:46.070Z,0.10
2019-01-20T02:40:16.107Z,0.10
2019-01-20T02:42:43.757Z,0.30
2019-01-20T02:45:14.089Z,0.30
2019-01-20T02:47:42.119Z,0.20
2019-01-20T02:50:13.340Z,0.30
2019-01-20T02:52:41.173Z,0.30
2019-01-20T02:55:09.387Z,0.30
2019-01-20T02:57:36.917Z,0.20
2019-01-20T03:00:09.691Z,0.30
2019-01-20T03:02:37.068Z,0.30
2019-01-20T03:05:09.119Z,0.30
2019-01-20T03:07:36.507Z,0.30
2019-01-20T03:10:09.177Z,0.40
2019-01-20T03:12:36.798Z,0.20
2019-01-20T03:15:08.761Z,0.20
2019-01-20T03:17:36.277Z,0.40
2019-01-20T03:20:09.376Z,0.60
2019-01-20T03:22:38.325Z,0.60
2019-01-20T03:25:10.561Z,0.80
2019-01-20T03:27:37.958Z,0.90
2019-01-20T03:30:10.499Z,0.90
2019-01-20T03:32:38.031Z,1.00
2019-01-20T03:35:07.608Z,1.10
2019-01-20T03:37:35.207Z,1.20
2019-01-20T03:40:04.787Z,1.10
2019-01-20T03:42:32.230Z,1.10
2019-01-20T03:44:59.598Z,1.30
2019-01-20T03:47:27.072Z,1.40
2019-01-20T03:49:54.637Z,1.30
2019-01-20T03:52:21.733Z,1.30
2019-01-20T03:54:49.049Z,1.40
2019-01-20T03:57:16.378Z,1.30
2019-01-20T03:59:44.037Z,1.30
2019-01-20T04:02:11.516Z,1.50
2019-01-20T04:04:38.748Z,1.50
2019-01-20T04:07:06.327Z,1.30
2019-01-20T04:09:33.977Z,1.20
2019-01-20T04:12:01.309Z,1.30
2019-01-20T04:14:28.838Z,1.20
2019-01-20T04:16:56.117Z,1.30
2019-01-20T04:19:23.550Z,1.10
2019-01-20T04:21:51.021Z,1.40
2019-01-20T04:24:18.748Z,1.50
2019-01-20T04:26:46.122Z,1.40
2019-01-20T04:29:13.602Z,1.60
2019-01-20T04:31:41.378Z,1.60
2019-01-20T04:34:08.680Z,1.70
2019-01-20T04:36:36.118Z,1.60
2019-01-20T04:39:05.558Z,1.50
2019-01-20T04:41:32.968Z,1.60
2019-01-20T04:44:00.279Z,1.50
2019-01-20T04:46:27.598Z,1.50
2019-01-20T04:48:54.869Z,1.50
2019-01-20T04:51:22.358Z,1.50
2019-01-20T04:53:50.076Z,1.60
2019-01-20T04:56:17.377Z,1.60
2019-01-20T04:58:44.884Z,1.50
2019-01-20T05:01:12.318Z,1.80
2019-01-20T05:03:39.772Z,1.90
2019-01-20T05:06:07.079Z,1.80
2019-01-20T05:08:34.499Z,1.80
2019-01-20T05:11:01.799Z,1.90
2019-01-20T05:13:29.186Z,1.80
2019-01-20T05:15:56.637Z,1.80
2019-01-20T05:18:24.037Z,1.80
2019-01-20T05:20:51.840Z,1.80
2019-01-20T05:23:19.327Z,1.80
2019-01-20T05:25:46.968Z,1.90
2019-01-20T05:28:14.637Z,1.90
2019-01-20T05:30:42.029Z,1.80
2019-01-20T05:33:09.368Z,1.80
2019-01-20T05:35:36.759Z,1.60
2019-01-20T05:38:04.198Z,1.80
2019-01-20T05:40:31.708Z,1.70
2019-01-20T05:42:59.037Z,1.70
2019-01-20T05:45:26.358Z,1.30
2019-01-20T05:47:53.930Z,1.20
2019-01-20T05:50:21.301Z,1.10
2019-01-20T05:52:48.817Z,1.20
2019-01-20T05:55:16.309Z,1.30
2019-01-20T05:57:44.069Z,1.50
2019-01-20T06:00:19.667Z,1.30
2019-01-20T06:02:47.097Z,1.20
2019-01-20T06:05:14.368Z,1.30
2019-01-20T06:07:41.737Z,1.00
2019-01-20T06:10:12.048Z,0.80
2019-01-20T06:12:39.729Z,1.00
2019-01-20T06:15:11.836Z,0.80
2019-01-20T06:17:39.342Z,1.00
2019-01-20T06:20:08.628Z,1.20
2019-01-20T06:22:35.958Z,1.20
2019-01-20T06:25:06.169Z,1.10
2019-01-20T06:27:33.539Z,1.00
2019-01-20T06:30:00.957Z,1.00
2019-01-20T06:32:28.337Z,0.90
2019-01-20T06:34:55.637Z,1.00
2019-01-20T06:37:23.248Z,1.20
2019-01-20T06:39:50.908Z,0.90
2019-01-20T06:42:18.767Z,0.90
2019-01-20T06:44:46.467Z,0.90
2019-01-20T06:47:14.220Z,1.10
2019-01-20T06:49:41.687Z,1.20
2019-01-20T06:52:08.978Z,1.30
2019-01-20T06:54:36.808Z,1.10
2019-01-20T06:57:04.180Z,1.20
2019-01-20T06:59:31.450Z,1.30
2019-01-20T07:01:59.018Z,1.10
2019-01-20T07:04:26.408Z,1.10
2019-01-20T07:06:53.699Z,1.00
2019-01-20T07:09:20.733Z,1.10
2019-01-20T07:11:48.299Z,0.80
2019-01-20T07:14:15.910Z,0.80
2019-01-20T07:16:43.297Z,0.80
2019-01-20T07:19:10.709Z,0.90
2019-01-20T07:21:37.887Z,1.10
2019-01-20T07:24:05.201Z,0.80
2019-01-20T07:26:32.697Z,0.90
2019-01-20T07:29:00.298Z,1.00
2019-01-20T07:31:27.809Z,1.00
2019-01-20T07:33:54.967Z,1.00
2019-01-20T07:36:22.378Z,1.10
2019-01-20T07:38:49.748Z,1.30
2019-01-20T07:41:17.007Z,1.10
2019-01-20T07:43:44.181Z,0.90
2019-01-20T07:46:11.527Z,0.80
2019-01-20T07:48:38.873Z,0.80
2019-01-20T07:51:06.730Z,1.10
2019-01-20T07:53:34.137Z,1.20
2019-01-20T07:56:21.571Z,1.00
2019-01-20T07:58:50.277Z,1.00
2019-01-20T08:01:18.377Z,1.00
2019-01-20T08:03:46.038Z,1.10
2019-01-20T08:06:13.807Z,1.10
2019-01-20T08:08:41.647Z,1.10
2019-01-20T08:11:09.488Z,1.20
2019-01-20T08:13:37.551Z,1.00
2019-01-20T08:16:05.172Z,1.20
2019-01-20T08:18:32.310Z,1.00
2019-01-20T08:20:59.533Z,0.90
2019-01-20T08:23:27.602Z,1.30
2019-01-20T08:25:55.189Z,1.30
2019-01-20T08:28:22.795Z,1.10
2019-01-20T08:30:50.524Z,1.20
2019-01-20T08:33:17.929Z,1.30
2019-01-20T08:35:45.298Z,1.50
2019-01-20T08:38:12.606Z,1.70
2019-01-20T08:40:40.817Z,1.80
2019-01-20T08:43:07.918Z,1.60
2019-01-20T08:45:52.997Z,1.60
2019-01-20T08:48:23.649Z,1.40
2019-01-20T08:50:52.511Z,1.50
2019-01-20T08:53:20.927Z,1.70
2019-01-20T08:55:48.198Z,1.60
2019-01-20T08:58:15.971Z,1.80
2019-01-20T09:00:43.428Z,2.00
2019-01-20T09:03:10.977Z,2.20
2019-01-20T09:05:38.578Z,2.20
2019-01-20T09:08:05.790Z,2.20
2019-01-20T09:10:33.268Z,2.50
2019-01-20T09:13:01.228Z,2.40
2019-01-20T09:15:28.498Z,2.50
2019-01-20T09:17:56.279Z,2.70
2019-01-20T09:20:23.857Z,2.90
2019-01-20T09:22:53.230Z,3.00
2019-01-20T09:25:20.500Z,3.00
2019-01-20T09:27:48.288Z,2.90
2019-01-20T09:30:21.796Z,3.00
2019-01-20T09:32:49.766Z,3.10
2019-01-20T09:35:18.105Z,3.30
2019-01-20T09:37:45.508Z,3.20
2019-01-20T09:40:16.258Z,3.30
2019-01-20T09:42:43.879Z,3.40
2019-01-20T09:45:31.340Z,3.40
2019-01-20T09:48:00.025Z,2.80
2019-01-20T09:50:27.090Z,3.10
2019-01-20T09:53:16.356Z,3.20
2019-01-20T09:55:43.748Z,3.00
2019-01-20T09:58:11.063Z,3.20
2019-01-20T10:00:39.078Z,3.20
2019-01-20T10:03:06.787Z,3.30
2019-01-20T10:05:34.227Z,3.40
2019-01-20T10:08:01.877Z,3.40
2019-01-20T10:10:29.347Z,3.30
2019-01-20T10:12:56.769Z,3.40
2019-01-20T10:15:24.057Z,3.40
2019-01-20T10:17:51.278Z,3.60
2019-01-20T10:20:26.652Z,3.60
2019-01-20T10:22:53.888Z,3.60
2019-01-20T10:25:21.337Z,3.60
2019-01-20T10:27:48.627Z,3.70
2019-01-20T10:30:29.258Z,3.70
2019-01-20T10:32:56.651Z,3.90
2019-01-20T10:35:25.788Z,3.90
2019-01-20T10:37:54.387Z,4.20
2019-01-20T10:40:21.720Z,4.20
2019-01-20T10:42:49.197Z,4.00
2019-01-20T10:45:16.640Z,4.10
2019-01-20T10:47:44.040Z,4.10
2019-01-20T10:50:15.597Z,4.20
2019-01-20T10:52:43.329Z,4.30
2019-01-20T10:55:10.797Z,4.40
2019-01-20T10:57:38.268Z,4.50
2019-01-20T11:00:25.787Z,4.20
2019-01-20T11:02:53.378Z,4.30
2019-01-20T11:05:24.883Z,4.30
2019-01-20T11:07:50.316Z,4.30
2019-01-20T11:10:19.720Z,4.30
2019-01-20T11:12:48.919Z,4.40
2019-01-20T11:15:16.882Z,4.60
2019-01-20T11:17:44.388Z,4.50
2019-01-20T11:20:18.559Z,4.70
2019-01-20T11:22:45.926Z,4.80
2019-01-20T11:25:24.287Z,4.40
2019-01-20T11:27:51.697Z,4.50
2019-01-20T11:30:19.222Z,4.40
2019-01-20T11:32:46.806Z,4.40
2019-01-20T11:35:19.089Z,4.60
2019-01-20T11:37:47.497Z,4.60
2019-01-20T11:40:15.449Z,4.70
2019-01-20T11:42:43.107Z,4.80
2019-01-20T11:45:19.018Z,4.90
2019-01-20T11:47:46.673Z,4.90
2019-01-20T11:50:15.087Z,4.80
2019-01-20T11:52:42.518Z,4.80
2019-01-20T11:55:17.070Z,4.60
2019-01-20T11:57:44.698Z,4.50
2019-01-20T12:00:28.316Z,4.40
2019-01-20T12:02:55.867Z,4.20
2019-01-20T12:05:23.831Z,4.30
2019-01-20T12:07:51.319Z,4.50
2019-01-20T12:10:18.969Z,4.60
2019-01-20T12:12:48.288Z,4.80
2019-01-20T12:15:15.871Z,4.70
2019-01-20T12:17:43.727Z,4.70
2019-01-20T12:20:15.379Z,4.80
2019-01-20T12:22:43.182Z,4.80
2019-01-20T12:25:18.938Z,5.00
2019-01-20T12:27:46.407Z,5.10
2019-01-20T12:30:36.191Z,5.10
2019-01-20T12:33:03.998Z,5.20
2019-01-20T12:35:31.777Z,5.30
2019-01-20T12:37:59.179Z,5.20
2019-01-20T12:40:31.458Z,5.10
2019-01-20T12:42:58.918Z,5.00
2019-01-20T12:45:26.379Z,4.90
2019-01-20T12:47:54.187Z,4.80
2019-01-20T12:50:21.637Z,5.10
2019-01-20T12:52:49.070Z,4.90
2019-01-20T12:55:16.707Z,4.90
2019-01-20T12:57:44.067Z,4.90
2019-01-20T13:00:19.328Z,4.70
2019-01-20T13:02:47.330Z,4.70
2019-01-20T13:05:15.079Z,4.80
2019-01-20T13:07:43.396Z,5.00
2019-01-20T13:10:17.758Z,5.10
2019-01-20T13:12:45.540Z,5.20
2019-01-20T13:15:23.719Z,5.10
2019-01-20T13:17:51.378Z,5.40
2019-01-20T13:20:25.450Z,5.40
2019-01-20T13:22:53.237Z,5.50
2019-01-20T13:25:28.129Z,5.60
2019-01-20T13:27:55.487Z,5.60
2019-01-20T13:30:28.217Z,5.60
2019-01-20T13:32:55.498Z,5.50
2019-01-20T13:35:23.798Z,5.30
2019-01-20T13:38:01.619Z,5.20
2019-01-20T13:40:50.066Z,5.30
2019-01-20T13:43:17.461Z,5.00
2019-01-20T13:45:45.448Z,5.00
2019-01-20T13:48:12.959Z,5.10
2019-01-20T13:50:40.527Z,5.00
2019-01-20T13:53:07.897Z,5.10
2019-01-20T13:55:35.270Z,5.10
2019-01-20T13:58:03.728Z,4.90
2019-01-20T14:00:31.018Z,4.70
2019-01-20T14:02:58.085Z,4.80
2019-01-20T14:05:25.359Z,4.80
2019-01-20T14:07:52.767Z,4.70
2019-01-20T14:10:24.333Z,4.80
2019-01-20T14:12:53.669Z,4.80
2019-01-20T14:15:21.396Z,4.80
2019-01-20T14:17:50.273Z,4.70
2019-01-20T14:20:21.472Z,4.70
2019-01-20T14:22:49.177Z,4.60
2019-01-20T14:25:28.863Z,4.60
2019-01-20T14:27:57.425Z,4.50
2019-01-20T14:30:33.549Z,4.40
2019-01-20T14:33:00.979Z,4.40
2019-01-20T14:35:28.358Z,4.20
2019-01-20T14:37:55.717Z,4.10
2019-01-20T14:40:23.298Z,4.00
2019-01-20T14:42:52.037Z,4.20
2019-01-20T14:45:19.775Z,4.00
2019-01-20T14:47:47.606Z,3.90
2019-01-20T14:50:22.976Z,3.90
2019-01-20T14:52:50.414Z,3.80
2019-01-20T14:55:18.008Z,3.70
2019-01-20T14:57:45.607Z,3.70
2019-01-20T15:00:24.239Z,3.60
2019-01-20T15:02:52.118Z,3.50
2019-01-20T15:05:19.598Z,3.50
2019-01-20T15:07:47.559Z,3.40
2019-01-20T15:10:15.748Z,3.40
2019-01-20T15:12:43.560Z,3.40
2019-01-20T15:15:31.038Z,3.20
2019-01-20T15:17:58.566Z,3.10
2019-01-20T15:20:26.947Z,2.90
2019-01-20T15:22:54.606Z,2.90
2019-01-20T15:25:22.409Z,2.80
2019-01-20T15:27:50.398Z,2.90
2019-01-20T15:30:30.584Z,2.80
2019-01-20T15:32:59.018Z,2.60
2019-01-20T15:35:26.387Z,2.40
2019-01-20T15:37:53.888Z,2.40
2019-01-20T15:40:24.037Z,2.40
2019-01-20T15:42:51.708Z,2.20
2019-01-20T15:45:21.570Z,2.10
2019-01-20T15:47:49.456Z,2.00
2019-01-20T15:50:21.646Z,2.00
2019-01-20T15:52:50.307Z,2.00
2019-01-20T15:55:17.728Z,1.90
2019-01-20T15:57:45.076Z,1.80
2019-01-20T16:00:26.517Z,1.60
2019-01-20T16:02:54.348Z,1.60
2019-01-20T16:05:22.549Z,1.50
2019-01-20T16:07:49.808Z,1.50
2019-01-20T16:10:17.722Z,1.40
2019-01-20T16:12:46.217Z,1.50
2019-01-20T16:15:24.428Z,1.50
2019-01-20T16:17:49.179Z,1.50
2019-01-20T16:20:18.666Z,1.50
2019-01-20T16:22:46.487Z,1.50
2019-01-20T16:25:22.001Z,1.50
2019-01-20T16:27:49.698Z,1.60
2019-01-20T16:30:24.488Z,1.70
2019-01-20T16:32:51.969Z,1.70
2019-01-20T16:35:21.307Z,1.80
2019-01-20T16:37:49.177Z,1.70
2019-01-20T16:40:22.828Z,1.80
2019-01-20T16:42:50.338Z,1.90
2019-01-20T16:45:31.984Z,1.80
2019-01-20T16:47:54.852Z,1.80
2019-01-20T16:50:24.598Z,1.70
2019-01-20T16:52:54.648Z,1.70
2019-01-20T16:55:21.687Z,1.70
2019-01-20T17:05:26.895Z,1.80
2019-01-20T17:08:42.050Z,1.80
2019-01-20T17:25:00.708Z,2.00
2019-01-20T17:27:36.667Z,2.00
2019-01-20T17:30:21.687Z,2.10
2019-01-20T17:32:58.687Z,2.10
2019-01-20T17:35:33.347Z,2.10
2019-01-20T17:40:35.357Z,2.10
2019-01-20T17:43:04.168Z,2.10
2019-01-20T17:45:38.939Z,2.20
2019-01-20T17:48:06.547Z,2.10
2019-01-20T17:50:37.069Z,2.10
2019-01-20T17:53:06.795Z,2.00
2019-01-20T17:55:34.299Z,2.10
2019-01-20T17:58:01.918Z,2.00
2019-01-20T18:00:34.900Z,2.10
2019-01-20T18:03:03.709Z,2.00
2019-01-20T18:05:32.159Z,2.10
2019-01-20T18:07:59.947Z,2.20
2019-01-20T18:10:27.957Z,2.30
2019-01-20T18:12:55.419Z,2.20
2019-01-20T18:15:26.517Z,2.30
2019-01-20T18:17:54.506Z,2.30
2019-01-20T18:20:26.578Z,2.30
2019-01-20T18:22:54.631Z,2.30
2019-01-20T18:25:22.717Z,2.40
2019-01-20T18:27:50.119Z,2.60
2019-01-20T18:30:22.778Z,2.60
2019-01-20T18:32:50.158Z,2.60
2019-01-20T18:35:17.769Z,2.60
2019-01-20T18:37:45.378Z,2.70
2019-01-20T18:40:21.229Z,2.60
2019-01-20T18:42:48.704Z,2.60
2019-01-20T18:45:31.291Z,2.70
2019-01-20T18:47:58.926Z,2.80
2019-01-20T18:50:29.540Z,2.60
2019-01-20T18:52:57.270Z,2.70
2019-01-20T18:55:24.958Z,2.60
2019-01-20T18:57:52.722Z,2.60
2019-01-20T19:00:27.523Z,2.60
2019-01-20T19:02:55.179Z,2.60
2019-01-20T19:05:22.868Z,2.60
2019-01-20T19:07:55.375Z,2.70
2019-01-20T19:10:21.837Z,2.60
2019-01-20T19:12:49.688Z,2.60
2019-01-20T19:15:20.627Z,2.70
2019-01-20T19:17:47.932Z,2.60
2019-01-20T19:20:18.178Z,2.60
2019-01-20T19:22:47.680Z,2.60
2019-01-20T19:25:15.198Z,2.60
2019-01-20T19:27:42.707Z,2.60
2019-01-20T19:30:18.617Z,2.60
2019-01-20T19:32:46.028Z,2.50
2019-01-20T19:35:13.607Z,2.40
2019-01-20T19:37:41.178Z,2.40
2019-01-20T19:40:15.297Z,2.40
2019-01-20T19:42:43.039Z,2.40
2019-01-20T19:45:21.120Z,2.30
2019-01-20T19:47:48.979Z,2.30
2019-01-20T19:50:17.347Z,2.30
2019-01-20T19:52:44.677Z,2.30
2019-01-20T19:55:27.742Z,2.20
2019-01-20T19:57:55.185Z,2.20
2019-01-20T20:00:26.567Z,2.10
2019-01-20T20:02:54.108Z,2.10
2019-01-20T20:05:22.029Z,2.10
2019-01-20T20:07:50.687Z,2.00
2019-01-20T20:10:23.587Z,2.10
2019-01-20T20:12:51.398Z,2.00
2019-01-20T20:15:21.827Z,1.90
2019-01-20T20:17:49.558Z,1.90
2019-01-20T20:20:19.047Z,1.90
2019-01-20T20:22:46.680Z,1.80
2019-01-20T20:25:17.928Z,1.70
2019-01-20T20:27:45.467Z,1.70
2019-01-20T20:30:22.798Z,1.60
2019-01-20T20:32:50.499Z,1.50
2019-01-20T20:35:18.299Z,1.60
2019-01-20T20:37:46.022Z,1.50
2019-01-20T20:40:18.870Z,1.40
2019-01-20T20:42:46.598Z,1.40
2019-01-20T20:45:20.231Z,1.50
2019-01-20T20:47:48.057Z,1.50
2019-01-20T20:50:17.036Z,1.70
2019-01-20T20:52:46.159Z,1.60
2019-01-20T20:55:14.569Z,1.80
2019-01-20T20:57:42.058Z,1.80
2019-01-20T21:00:14.837Z,1.90
2019-01-20T21:02:42.147Z,1.90
2019-01-20T21:05:09.654Z,2.00
2019-01-20T21:07:37.127Z,2.00
2019-01-20T21:10:09.778Z,1.80
2019-01-20T21:12:37.148Z,1.70
2019-01-20T21:15:09.627Z,1.60
2019-01-20T21:17:37.099Z,1.50
2019-01-20T21:20:09.986Z,1.50
2019-01-20T21:22:37.457Z,1.50
2019-01-20T21:25:09.068Z,1.50
2019-01-20T21:27:37.167Z,1.30
2019-01-20T21:30:12.827Z,1.50
2019-01-20T21:32:40.397Z,1.60
2019-01-20T21:35:09.157Z,1.60
2019-01-20T21:37:36.427Z,1.60
2019-01-20T21:40:09.140Z,1.50
2019-01-20T21:42:36.577Z,1.40
2019-01-20T21:45:07.917Z,1.60
2019-01-20T21:47:35.379Z,1.40
2019-01-20T21:50:07.038Z,1.30
2019-01-20T21:52:34.748Z,1.10
2019-01-20T21:55:02.278Z,1.10
2019-01-20T21:57:30.068Z,1.00
2019-01-20T21:59:57.389Z,1.00
2019-01-20T22:02:24.958Z,0.90
2019-01-20T22:04:52.177Z,0.90
2019-01-20T22:07:19.908Z,0.90
2019-01-20T22:09:47.228Z,1.00
2019-01-20T22:12:14.738Z,1.00
2019-01-20T22:14:42.246Z,1.00
2019-01-20T22:17:09.487Z,1.20
2019-01-20T22:19:36.947Z,1.30
2019-01-20T22:22:04.868Z,1.50
2019-01-20T22:24:32.429Z,1.60
2019-01-20T22:26:59.859Z,1.60
2019-01-20T22:29:27.289Z,1.60
2019-01-20T22:31:54.808Z,1.70
2019-01-20T22:34:22.263Z,1.80
2019-01-20T22:37:09.427Z,1.90
2019-01-20T22:39:36.760Z,1.80
2019-01-20T22:42:04.118Z,1.70
2019-01-20T22:44:31.377Z,1.60
2019-01-20T22:47:00.332Z,1.50
2019-01-20T22:49:28.118Z,1.60
2019-01-20T22:51:56.208Z,1.70
2019-01-20T22:54:23.839Z,1.70
2019-01-20T22:56:51.141Z,1.70
2019-01-20T22:59:18.547Z,1.70
2019-01-20T23:01:46.117Z,1.70
2019-01-20T23:04:13.357Z,1.60
2019-01-20T23:06:40.990Z,1.70
2019-01-20T23:09:09.029Z,1.50
2019-01-20T23:11:36.428Z,1.50
2019-01-20T23:14:04.467Z,1.60
2019-01-20T23:16:31.939Z,1.50
2019-01-20T23:18:59.887Z,1.50
2019-01-20T23:21:27.381Z,1.40
2019-01-20T23:23:55.478Z,1.40
2019-01-20T23:26:22.948Z,1.30
2019-01-20T23:28:50.507Z,1.20
2019-01-20T23:31:18.337Z,1.10
2019-01-20T23:33:45.588Z,1.10
2019-01-20T23:36:12.897Z,0.90
2019-01-20T23:38:40.210Z,0.80
2019-01-20T23:41:07.767Z,0.50
2019-01-20T23:43:35.198Z,0.60
2019-01-20T23:46:02.897Z,0.60
2019-01-20T23:48:30.227Z,0.40
2019-01-20T23:50:57.518Z,0.40
2019-01-20T23:53:25.038Z,0.30
2019-01-20T23:55:52.457Z,0.20
2019-01-20T23:58:20.039Z,0.00
